createdAt,value
2019-04-03T00:00:13.992Z,53.67
2019-04-03T00:02:42.467Z,53.86
2019-04-03T00:05:11.144Z,53.96
2019-04-03T00:07:39.782Z,54.02
2019-04-03T00:10:08.459Z,54.12
2019-04-03T00:12:37.414Z,54.33
2019-04-03T00:15:07.528Z,54.20
2019-04-03T00:17:36.059Z,54.25
2019-04-03T00:20:07.437Z,54.59
2019-04-03T00:22:37.306Z,54.63
2019-04-03T00:25:07.400Z,54.80
2019-04-03T00:27:35.811Z,54.88
2019-04-03T00:30:06.204Z,54.98
2019-04-03T00:32:34.619Z,55.32
2019-04-03T00:35:03.675Z,55.07
2019-04-03T00:37:32.204Z,55.31
2019-04-03T00:40:00.673Z,55.45
2019-04-03T00:42:29.201Z,55.43
2019-04-03T00:44:57.924Z,55.61
2019-04-03T00:47:26.389Z,55.79
2019-04-03T00:49:56.115Z,55.88
2019-04-03T00:52:27.210Z,56.02
2019-04-03T00:54:56.586Z,56.18
2019-04-03T00:57:26.321Z,56.11
2019-04-03T00:59:56.473Z,56.14
2019-04-03T01:02:27.938Z,56.30
2019-04-03T01:04:58.033Z,56.20
2019-04-03T01:07:25.678Z,56.42
2019-04-03T01:09:54.188Z,56.48
2019-04-03T01:12:23.008Z,56.35
2019-04-03T01:14:51.485Z,56.30
2019-04-03T01:17:20.448Z,56.74
2019-04-03T01:19:48.930Z,56.75
2019-04-03T01:22:17.308Z,56.57
2019-04-03T01:24:45.708Z,56.91
2019-04-03T01:27:14.465Z,56.50
2019-04-03T01:29:43.240Z,56.58
2019-04-03T01:32:11.720Z,56.60
2019-04-03T01:34:40.227Z,56.67
2019-04-03T01:37:08.978Z,56.64
2019-04-03T01:39:37.333Z,57.01
2019-04-03T01:42:10.231Z,57.33
2019-04-03T01:44:38.665Z,57.30
2019-04-03T01:47:07.129Z,57.43
2019-04-03T01:49:35.632Z,57.52
2019-04-03T01:52:04.105Z,57.27
2019-04-03T01:54:33.763Z,57.55
2019-04-03T01:57:02.462Z,57.76
2019-04-03T01:59:30.921Z,57.83
2019-04-03T02:01:59.338Z,57.70
2019-04-03T02:04:27.968Z,57.43
2019-04-03T02:06:56.649Z,57.49
2019-04-03T02:09:25.091Z,57.68
2019-04-03T02:11:53.553Z,57.68
2019-04-03T02:14:22.174Z,57.85
2019-04-03T02:16:52.987Z,57.74
2019-04-03T02:19:21.197Z,58.00
2019-04-03T02:21:49.626Z,57.86
2019-04-03T02:24:18.153Z,57.85
2019-04-03T02:26:46.519Z,58.06
2019-04-03T02:29:15.015Z,57.89
2019-04-03T02:31:43.411Z,58.05
2019-04-03T02:34:12.116Z,57.87
2019-04-03T02:36:43.301Z,58.00
2019-04-03T02:39:10.688Z,58.17
2019-04-03T02:41:39.154Z,58.06
2019-04-03T02:44:07.618Z,58.21
2019-04-03T02:46:36.054Z,58.70
2019-04-03T02:49:04.750Z,58.59
2019-04-03T02:51:33.230Z,58.49
2019-04-03T02:54:03.102Z,58.56
2019-04-03T02:56:31.678Z,58.77
2019-04-03T02:59:00.382Z,58.60
2019-04-03T03:01:28.845Z,58.50
2019-04-03T03:03:57.559Z,58.70
2019-04-03T03:06:26.000Z,58.96
2019-04-03T03:08:54.636Z,58.99
2019-04-03T03:11:24.487Z,58.95
2019-04-03T03:13:53.319Z,59.30
2019-04-03T03:16:21.844Z,59.35
2019-04-03T03:18:50.493Z,59.44
2019-04-03T03:21:19.924Z,59.44
2019-04-03T03:23:49.727Z,59.62
2019-04-03T03:26:18.530Z,59.56
2019-04-03T03:28:47.939Z,59.53
2019-04-03T03:31:17.525Z,59.62
2019-04-03T03:33:47.406Z,59.68
2019-04-03T03:36:21.772Z,59.93
2019-04-03T03:38:46.308Z,60.08
2019-04-03T03:41:15.302Z,60.03
2019-04-03T03:43:44.320Z,60.17
2019-04-03T03:46:13.407Z,60.14
2019-04-03T03:48:44.637Z,60.42
2019-04-03T03:51:13.498Z,60.56
2019-04-03T03:53:44.541Z,60.50
2019-04-03T03:56:12.365Z,60.57
2019-04-03T03:58:44.699Z,60.39
2019-04-03T04:01:11.420Z,60.32
2019-04-03T04:03:41.727Z,60.60
2019-04-03T04:06:10.634Z,60.68
2019-04-03T04:08:42.715Z,60.78
2019-04-03T04:11:09.968Z,60.95
2019-04-03T04:13:38.455Z,61.13
2019-04-03T04:16:07.200Z,60.94
2019-04-03T04:18:36.266Z,61.21
2019-04-03T04:21:09.406Z,61.06
2019-04-03T04:23:36.412Z,61.08
2019-04-03T04:26:04.849Z,61.12
2019-04-03T04:28:33.573Z,61.18
2019-04-03T04:31:02.075Z,61.24
2019-04-03T04:33:30.814Z,61.25
2019-04-03T04:35:59.279Z,61.66
2019-04-03T04:38:27.693Z,61.33
2019-04-03T04:40:56.155Z,61.50
2019-04-03T04:43:24.552Z,61.50
2019-04-03T04:45:53.087Z,61.52
2019-04-03T04:48:21.876Z,61.55
2019-04-03T04:50:50.371Z,61.60
2019-04-03T04:53:18.912Z,61.73
2019-04-03T04:55:47.495Z,61.64
2019-04-03T04:58:16.036Z,61.57
2019-04-03T05:00:47.041Z,61.83
2019-04-03T05:03:15.020Z,61.64
2019-04-03T05:05:43.572Z,61.94
2019-04-03T05:08:12.031Z,61.80
2019-04-03T05:10:40.839Z,61.92
2019-04-03T05:13:09.386Z,61.78
2019-04-03T05:15:37.858Z,61.71
2019-04-03T05:18:06.427Z,61.77
2019-04-03T05:20:35.199Z,61.93
2019-04-03T05:23:03.807Z,61.83
2019-04-03T05:25:32.337Z,62.06
2019-04-03T05:28:00.947Z,61.76
2019-04-03T05:30:30.649Z,62.03
2019-04-03T05:33:00.025Z,61.83
2019-04-03T05:35:28.942Z,61.93
2019-04-03T05:37:57.510Z,61.69
2019-04-03T05:40:26.715Z,62.12
2019-04-03T05:42:56.176Z,61.62
2019-04-03T05:45:24.608Z,61.69
2019-04-03T05:47:53.219Z,61.85
2019-04-03T05:50:21.749Z,61.42
2019-04-03T05:52:50.528Z,61.29
2019-04-03T05:55:19.001Z,61.21
2019-04-03T05:57:47.469Z,61.18
2019-04-03T06:00:16.367Z,61.04
2019-04-03T06:02:44.808Z,60.91
2019-04-03T06:05:13.594Z,60.39
2019-04-03T06:07:42.304Z,60.46
2019-04-03T06:10:10.839Z,60.07
2019-04-03T06:12:39.503Z,60.06
2019-04-03T06:15:09.800Z,59.87
2019-04-03T06:17:41.818Z,59.60
2019-04-03T06:20:12.038Z,59.45
2019-04-03T06:22:40.465Z,59.50
2019-04-03T06:25:13.432Z,59.11
2019-04-03T06:27:42.163Z,58.58
2019-04-03T06:30:09.844Z,58.20
2019-04-03T06:32:38.372Z,58.00
2019-04-03T06:35:06.848Z,56.99
2019-04-03T06:37:35.426Z,57.02
2019-04-03T06:40:06.886Z,56.87
2019-04-03T06:42:35.447Z,56.18
2019-04-03T06:45:05.405Z,56.13
2019-04-03T06:47:34.101Z,55.96
2019-04-03T06:50:02.613Z,55.92
2019-04-03T06:52:31.172Z,55.78
2019-04-03T06:54:59.612Z,55.26
2019-04-03T06:57:28.335Z,55.46
2019-04-03T06:59:56.869Z,55.36
2019-04-03T07:02:27.717Z,54.97
2019-04-03T07:04:55.627Z,54.42
2019-04-03T07:07:33.556Z,54.16
2019-04-03T07:09:54.670Z,53.05
2019-04-03T07:12:23.352Z,52.31
2019-04-03T07:14:51.945Z,51.32
2019-04-03T07:17:20.622Z,51.40
2019-04-03T07:19:49.191Z,50.87
2019-04-03T07:22:17.990Z,50.92
2019-04-03T07:24:46.416Z,50.80
2019-04-03T07:27:15.505Z,51.23
2019-04-03T07:29:44.011Z,51.57
2019-04-03T07:32:12.585Z,51.77
2019-04-03T07:34:41.372Z,51.76
2019-04-03T07:37:09.920Z,50.63
2019-04-03T07:39:38.424Z,49.84
2019-04-03T07:42:07.014Z,49.36
2019-04-03T07:44:35.545Z,49.00
2019-04-03T07:47:05.328Z,48.28
2019-04-03T07:49:33.817Z,48.21
2019-04-03T07:52:02.606Z,48.18
2019-04-03T07:54:31.099Z,47.86
2019-04-03T07:56:59.693Z,47.49
2019-04-03T07:59:28.359Z,47.40
2019-04-03T08:01:56.929Z,46.88
2019-04-03T08:04:25.915Z,46.38
2019-04-03T08:06:54.670Z,46.79
2019-04-03T08:09:23.552Z,45.61
2019-04-03T08:11:52.211Z,45.45
2019-04-03T08:14:21.250Z,45.18
2019-04-03T08:16:49.889Z,46.07
2019-04-03T08:19:18.342Z,45.11
2019-04-03T08:21:47.085Z,44.55
2019-04-03T08:24:15.702Z,43.39
2019-04-03T08:26:44.901Z,42.33
2019-04-03T08:29:13.475Z,42.16
2019-04-03T08:31:43.637Z,41.30
2019-04-03T08:34:16.730Z,40.85
2019-04-03T08:36:43.100Z,40.40
2019-04-03T08:39:11.620Z,38.98
2019-04-03T08:41:40.100Z,39.34
2019-04-03T08:44:09.239Z,38.67
2019-04-03T08:46:38.123Z,37.36
2019-04-03T08:49:06.845Z,36.78
2019-04-03T08:51:35.468Z,36.83
2019-04-03T08:54:04.257Z,36.64
2019-04-03T08:56:32.999Z,36.08
2019-04-03T08:59:01.560Z,36.40
2019-04-03T09:01:30.243Z,34.65
2019-04-03T09:03:59.184Z,34.85
2019-04-03T09:06:27.705Z,34.25
2019-04-03T09:08:58.193Z,33.12
2019-04-03T09:11:26.652Z,33.20
2019-04-03T09:13:55.812Z,32.28
2019-04-03T09:16:24.808Z,32.08
2019-04-03T09:18:53.545Z,31.75
2019-04-03T09:21:22.115Z,31.47
2019-04-03T09:23:50.661Z,31.40
2019-04-03T09:26:19.192Z,32.18
2019-04-03T09:28:47.728Z,31.93
2019-04-03T09:31:16.834Z,31.66
2019-04-03T09:33:46.559Z,32.46
2019-04-03T09:36:15.119Z,31.00
2019-04-03T09:38:43.810Z,33.17
2019-04-03T09:41:13.954Z,33.17
2019-04-03T09:43:42.528Z,32.88
2019-04-03T09:46:11.350Z,32.43
2019-04-03T09:48:40.023Z,31.50
2019-04-03T09:51:09.744Z,31.79
2019-04-03T09:53:38.315Z,31.68
2019-04-03T09:56:07.999Z,31.22
2019-04-03T09:58:37.034Z,32.00
2019-04-03T10:01:06.172Z,31.89
2019-04-03T10:03:34.887Z,31.87
2019-04-03T10:06:03.871Z,32.36
2019-04-03T10:08:32.315Z,32.37
2019-04-03T10:11:00.903Z,33.09
2019-04-03T10:13:29.501Z,33.88
2019-04-03T10:15:58.268Z,34.22
2019-04-03T10:18:27.174Z,33.32
2019-04-03T10:20:55.735Z,34.53
2019-04-03T10:23:24.518Z,35.19
2019-04-03T10:25:54.699Z,35.74
2019-04-03T10:28:23.518Z,35.07
2019-04-03T10:30:53.539Z,34.91
2019-04-03T10:33:22.312Z,34.50
2019-04-03T10:35:51.484Z,33.30
2019-04-03T10:38:19.924Z,34.98
2019-04-03T10:40:48.705Z,35.17
2019-04-03T10:43:17.753Z,34.62
2019-04-03T10:45:46.355Z,33.69
2019-04-03T10:48:14.858Z,33.20
2019-04-03T10:50:43.679Z,33.56
2019-04-03T10:53:12.222Z,33.39
2019-04-03T10:55:40.741Z,33.59
2019-04-03T10:58:09.275Z,34.47
2019-04-03T11:00:38.250Z,33.99
2019-04-03T11:03:06.904Z,33.99
2019-04-03T11:05:35.434Z,33.71
2019-04-03T11:08:04.008Z,33.87
2019-04-03T11:10:32.498Z,32.94
2019-04-03T11:13:03.250Z,32.44
2019-04-03T11:15:31.383Z,31.96
2019-04-03T11:18:00.508Z,31.19
2019-04-03T11:20:29.382Z,30.76
2019-04-03T11:23:05.947Z,30.67
2019-04-03T11:25:28.428Z,30.41
2019-04-03T11:27:57.282Z,30.28
2019-04-03T11:30:26.416Z,30.05
2019-04-03T11:32:54.853Z,29.46
2019-04-03T11:35:23.319Z,27.76
2019-04-03T11:37:51.816Z,27.89
2019-04-03T11:40:20.566Z,26.72
2019-04-03T11:42:49.176Z,26.28
2019-04-03T11:45:18.165Z,25.49
2019-04-03T11:47:47.230Z,26.18
2019-04-03T11:50:18.134Z,26.95
2019-04-03T11:52:46.777Z,27.11
2019-04-03T11:55:15.598Z,27.94
2019-04-03T11:57:44.149Z,27.47
2019-04-03T12:00:14.819Z,26.54
2019-04-03T12:02:44.351Z,25.03
2019-04-03T12:05:16.235Z,23.08
2019-04-03T12:07:43.782Z,23.91
2019-04-03T12:10:12.540Z,25.24
2019-04-03T12:12:42.117Z,27.74
2019-04-03T12:15:11.882Z,27.69
2019-04-03T12:17:40.997Z,26.50
2019-04-03T12:20:10.010Z,24.44
2019-04-03T12:22:38.972Z,24.61
2019-04-03T12:25:07.663Z,23.96
2019-04-03T12:27:36.776Z,24.53
2019-04-03T12:30:09.346Z,26.13
2019-04-03T12:32:43.319Z,26.66
2019-04-03T12:35:09.812Z,28.04
2019-04-03T12:37:38.451Z,28.94
2019-04-03T12:40:07.708Z,28.99
2019-04-03T12:42:36.200Z,29.37
2019-04-03T12:45:07.469Z,29.10
2019-04-03T12:47:36.207Z,29.21
2019-04-03T12:50:07.526Z,30.08
2019-04-03T12:52:36.611Z,30.87
2019-04-03T12:55:08.171Z,29.76
2019-04-03T12:57:39.240Z,29.66
2019-04-03T13:00:11.487Z,30.34
2019-04-03T13:02:40.081Z,31.07
2019-04-03T13:05:09.878Z,31.12
2019-04-03T13:07:38.571Z,31.62
2019-04-03T13:10:08.791Z,31.72
2019-04-03T13:12:38.005Z,31.99
2019-04-03T13:15:09.294Z,32.17
2019-04-03T13:17:42.552Z,32.50
2019-04-03T13:20:10.563Z,32.83
2019-04-03T13:22:40.004Z,32.80
2019-04-03T13:25:10.029Z,33.11
2019-04-03T13:27:38.571Z,33.41
2019-04-03T13:30:11.481Z,33.17
2019-04-03T13:32:38.318Z,33.66
2019-04-03T13:35:07.822Z,33.41
2019-04-03T13:37:36.348Z,33.77
2019-04-03T13:40:07.070Z,34.33
2019-04-03T13:42:36.595Z,34.30
2019-04-03T13:45:09.344Z,34.14
2019-04-03T13:47:41.525Z,34.25
2019-04-03T13:50:09.684Z,34.50
2019-04-03T13:52:42.345Z,35.17
2019-04-03T13:55:08.841Z,35.13
2019-04-03T13:57:37.626Z,35.21
2019-04-03T14:00:19.892Z,35.07
2019-04-03T14:02:40.410Z,34.76
2019-04-03T14:05:09.777Z,34.30
2019-04-03T14:07:41.514Z,33.57
2019-04-03T14:10:11.304Z,33.10
2019-04-03T14:12:44.008Z,32.31
2019-04-03T14:15:10.748Z,32.33
2019-04-03T14:17:39.803Z,31.80
2019-04-03T14:20:09.060Z,32.27
2019-04-03T14:22:37.787Z,33.20
2019-04-03T14:25:17.908Z,34.20
2019-04-03T14:27:37.678Z,34.25
2019-04-03T14:30:11.616Z,33.70
2019-04-03T14:32:38.376Z,32.79
2019-04-03T14:35:33.706Z,30.46
2019-04-03T14:37:37.910Z,28.79
2019-04-03T14:40:11.520Z,27.39
2019-04-03T14:42:38.610Z,27.58
2019-04-03T14:45:08.042Z,27.12
2019-04-03T14:47:36.924Z,27.71
2019-04-03T14:50:07.158Z,28.87
2019-04-03T14:52:36.340Z,29.30
2019-04-03T14:55:16.459Z,29.67
2019-04-03T14:57:37.296Z,30.28
2019-04-03T15:00:23.922Z,31.02
2019-04-03T15:02:40.102Z,31.28
2019-04-03T15:05:09.206Z,31.50
2019-04-03T15:07:37.546Z,31.49
2019-04-03T15:10:07.358Z,31.25
2019-04-03T15:12:38.622Z,31.56
2019-04-03T15:15:09.805Z,31.25
2019-04-03T15:17:38.889Z,31.13
2019-04-03T15:20:09.372Z,31.22
2019-04-03T15:22:38.137Z,30.75
2019-04-03T15:25:07.558Z,31.94
2019-04-03T15:27:36.044Z,32.35
2019-04-03T15:30:09.890Z,33.65
2019-04-03T15:32:37.989Z,34.25
2019-04-03T15:35:06.778Z,34.41
2019-04-03T15:37:35.261Z,34.51
2019-04-03T15:40:04.782Z,34.66
2019-04-03T15:42:33.568Z,34.73
2019-04-03T15:45:02.479Z,35.12
2019-04-03T15:47:37.077Z,35.19
2019-04-03T15:50:01.769Z,35.20
2019-04-03T15:52:30.444Z,35.98
2019-04-03T15:54:58.970Z,36.55
2019-04-03T15:57:27.653Z,37.04
2019-04-03T15:59:56.463Z,37.33
2019-04-03T16:02:24.971Z,37.29
2019-04-03T16:04:53.745Z,37.10
2019-04-03T16:07:22.717Z,37.31
2019-04-03T16:09:51.990Z,37.33
2019-04-03T16:12:25.035Z,37.32
2019-04-03T16:14:54.081Z,37.29
2019-04-03T16:17:22.781Z,36.90
2019-04-03T16:19:52.470Z,37.09
2019-04-03T16:22:21.690Z,37.37
2019-04-03T16:24:53.193Z,37.49
2019-04-03T16:27:21.124Z,37.62
2019-04-03T16:29:50.703Z,37.91
2019-04-03T16:32:19.515Z,37.52
2019-04-03T16:34:48.319Z,37.72
2019-04-03T16:37:16.898Z,37.81
2019-04-03T16:39:45.447Z,37.78
2019-04-03T16:42:15.743Z,37.99
2019-04-03T16:44:44.563Z,37.78
2019-04-03T16:47:14.441Z,37.58
2019-04-03T16:49:43.244Z,37.96
2019-04-03T16:52:11.778Z,37.92
2019-04-03T16:54:43.449Z,38.25
2019-04-03T16:57:10.572Z,38.24
2019-04-03T16:59:39.340Z,38.48
2019-04-03T17:02:07.948Z,38.66
2019-04-03T17:04:37.496Z,39.03
2019-04-03T17:07:06.318Z,38.88
2019-04-03T17:09:37.608Z,38.95
2019-04-03T17:12:05.343Z,39.16
2019-04-03T17:14:34.201Z,39.31
2019-04-03T17:17:03.515Z,39.61
2019-04-03T17:19:32.107Z,40.22
2019-04-03T17:22:00.951Z,40.44
2019-04-03T17:24:40.928Z,40.86
2019-04-03T17:27:00.438Z,40.71
2019-04-03T17:29:29.230Z,40.58
2019-04-03T17:31:58.841Z,40.68
2019-04-03T17:34:27.945Z,40.41
2019-04-03T17:36:56.785Z,40.60
2019-04-03T17:39:25.367Z,40.54
2019-04-03T17:41:53.852Z,40.88
2019-04-03T17:44:22.361Z,41.04
2019-04-03T17:46:50.759Z,41.05
2019-04-03T17:49:19.211Z,41.00
2019-04-03T17:51:47.688Z,41.03
2019-04-03T17:54:16.318Z,41.21
2019-04-03T17:56:45.117Z,41.21
2019-04-03T17:59:13.646Z,41.25
2019-04-03T18:01:42.102Z,41.52
2019-04-03T18:04:10.634Z,41.29
2019-04-03T18:06:39.021Z,41.47
2019-04-03T18:09:08.781Z,41.46
2019-04-03T18:11:37.400Z,41.62
2019-04-03T18:14:06.057Z,41.49
2019-04-03T18:16:34.795Z,41.47
2019-04-03T18:19:04.887Z,41.68
2019-04-03T18:21:33.402Z,41.72
2019-04-03T18:24:01.950Z,41.66
2019-04-03T18:26:31.126Z,41.65
2019-04-03T18:29:00.291Z,41.72
2019-04-03T18:31:28.866Z,41.82
2019-04-03T18:33:57.467Z,41.64
2019-04-03T18:36:31.340Z,41.59
2019-04-03T18:38:59.906Z,41.56
2019-04-03T18:41:28.462Z,41.58
2019-04-03T18:43:56.927Z,41.79
2019-04-03T18:46:32.357Z,41.89
2019-04-03T18:49:00.982Z,41.98
2019-04-03T18:51:26.752Z,41.92
2019-04-03T18:53:55.506Z,41.89
2019-04-03T18:56:24.047Z,41.94
2019-04-03T18:58:53.099Z,41.98
2019-04-03T19:01:22.777Z,42.16
2019-04-03T19:03:51.582Z,42.16
2019-04-03T19:06:20.379Z,42.39
2019-04-03T19:08:50.119Z,42.83
2019-04-03T19:11:20.005Z,42.53
2019-04-03T19:13:49.683Z,42.67
2019-04-03T19:16:28.946Z,42.72
2019-04-03T19:18:48.576Z,42.83
2019-04-03T19:21:24.204Z,43.06
2019-04-03T19:23:50.030Z,43.10
2019-04-03T19:26:18.209Z,42.99
2019-04-03T19:28:46.793Z,43.08
2019-04-03T19:31:15.739Z,43.19
2019-04-03T19:33:45.392Z,43.17
2019-04-03T19:36:14.187Z,43.55
2019-04-03T19:38:42.945Z,43.55
2019-04-03T19:41:11.855Z,43.77
2019-04-03T19:43:40.853Z,43.97
2019-04-03T19:46:09.321Z,44.12
2019-04-03T19:48:37.959Z,44.17
2019-04-03T19:51:06.844Z,44.17
2019-04-03T19:53:35.929Z,44.31
2019-04-03T19:56:04.610Z,44.51
2019-04-03T19:58:33.134Z,44.76
2019-04-03T20:01:03.532Z,44.71
2019-04-03T20:03:31.705Z,44.70
2019-04-03T20:06:00.194Z,44.79
2019-04-03T20:08:29.954Z,44.96
2019-04-03T20:11:00.195Z,45.04
2019-04-03T20:13:28.855Z,45.06
2019-04-03T20:15:57.434Z,45.19
2019-04-03T20:18:26.647Z,45.35
2019-04-03T20:20:55.104Z,45.30
2019-04-03T20:23:23.562Z,45.46
2019-04-03T20:25:52.193Z,45.54
2019-04-03T20:28:23.386Z,45.55
2019-04-03T20:30:50.790Z,45.70
2019-04-03T20:33:19.270Z,45.91
2019-04-03T20:35:49.474Z,46.04
2019-04-03T20:38:17.893Z,46.25
2019-04-03T20:40:46.416Z,46.31
2019-04-03T20:43:14.953Z,46.67
2019-04-03T20:45:43.483Z,46.47
2019-04-03T20:48:12.083Z,46.56
2019-04-03T20:50:40.727Z,46.63
2019-04-03T20:53:09.132Z,46.71
2019-04-03T20:55:37.732Z,46.96
2019-04-03T20:58:06.774Z,46.98
2019-04-03T21:00:35.385Z,47.18
2019-04-03T21:03:03.826Z,47.31
2019-04-03T21:05:32.275Z,47.34
2019-04-03T21:08:00.741Z,47.37
2019-04-03T21:10:31.183Z,47.49
2019-04-03T21:12:59.774Z,47.60
2019-04-03T21:15:28.293Z,47.66
2019-04-03T21:17:56.957Z,47.66
2019-04-03T21:20:25.378Z,47.76
2019-04-03T21:22:53.813Z,47.99
2019-04-03T21:25:22.299Z,47.86
2019-04-03T21:27:50.689Z,47.89
2019-04-03T21:30:19.634Z,47.87
2019-04-03T21:32:48.153Z,47.93
2019-04-03T21:35:16.612Z,48.07
2019-04-03T21:37:45.014Z,47.97
2019-04-03T21:40:15.297Z,48.03
2019-04-03T21:42:43.857Z,47.92
2019-04-03T21:45:12.673Z,48.02
2019-04-03T21:47:42.765Z,48.06
2019-04-03T21:50:11.561Z,48.09
2019-04-03T21:52:40.355Z,47.94
2019-04-03T21:55:08.898Z,48.34
2019-04-03T21:57:38.327Z,48.21
2019-04-03T22:00:08.959Z,48.40
2019-04-03T22:02:37.569Z,48.36
2019-04-03T22:05:07.602Z,48.42
2019-04-03T22:07:36.073Z,48.34
2019-04-03T22:10:08.565Z,48.28
2019-04-03T22:12:36.706Z,48.45
2019-04-03T22:15:07.132Z,48.31
2019-04-03T22:17:35.586Z,48.42
2019-04-03T22:20:04.993Z,48.45
2019-04-03T22:22:33.846Z,48.56
2019-04-03T22:25:03.102Z,48.28
2019-04-03T22:27:31.603Z,48.18
2019-04-03T22:29:59.997Z,48.62
2019-04-03T22:32:28.441Z,48.50
2019-04-03T22:34:57.005Z,48.53
2019-04-03T22:37:25.663Z,48.56
2019-04-03T22:39:54.078Z,48.24
2019-04-03T22:42:22.554Z,48.23
2019-04-03T22:44:51.270Z,48.42
2019-04-03T22:47:19.889Z,48.13
2019-04-03T22:49:48.575Z,48.06
2019-04-03T22:52:17.090Z,48.12
2019-04-03T22:54:45.887Z,48.24
2019-04-03T22:57:14.259Z,48.52
2019-04-03T22:59:43.038Z,48.78
2019-04-03T23:02:11.489Z,48.91
2019-04-03T23:04:41.930Z,48.73
2019-04-03T23:07:10.290Z,48.77
2019-04-03T23:09:39.097Z,48.83
2019-04-03T23:12:07.548Z,48.60
2019-04-03T23:14:38.254Z,48.47
2019-04-03T23:17:06.744Z,48.55
2019-04-03T23:19:35.679Z,48.33
2019-04-03T23:22:04.284Z,48.40
2019-04-03T23:24:32.838Z,48.55
2019-04-03T23:27:02.672Z,48.60
2019-04-03T23:29:31.742Z,48.79
2019-04-03T23:32:00.640Z,48.69
2019-04-03T23:34:29.190Z,48.74
2019-04-03T23:36:57.722Z,48.56
2019-04-03T23:39:27.924Z,48.76
2019-04-03T23:41:56.880Z,48.65
2019-04-03T23:44:25.317Z,48.52
2019-04-03T23:46:53.865Z,48.56
2019-04-03T23:49:22.426Z,48.62
2019-04-03T23:51:50.985Z,48.71
2019-04-03T23:54:19.564Z,48.70
2019-04-03T23:56:48.111Z,48.38
2019-04-03T23:59:16.626Z,48.72
